EVA431 RCTP-RCKH
Flight info
| Callsign | EVA431 |
|---|---|
| Flight time | 0h 52m |
| Altitude | 20000 |
| Route | CHALI1A CHALI T3 MKG W6 TNN TNN1J |
| Aircraft | B77W/H-SDE1E2E3FGHIJ2J3J4J5M1RWXY/LB1D1 |
Departure
| Time | 2026-04-24 14:49 |
|---|---|
| Airport | Taiwan Taoyuan International Airport (RCTP) |
Arrival
| Time | 2026-04-24 15:41 |
|---|---|
| Airport | Kaohsiung International Airport (RCKH) |
| Time | Latitude | Longitude | Altitude | Speed | Heading |
|---|---|---|---|---|---|
| 2026-04-24 14:14 | 25.07686 | 121.23553 | 85 ft | 0 kts | 319° |
| 2026-04-24 14:39 | 25.07677 | 121.23562 | 105 ft | 2 kts | 319° |
| 2026-04-24 14:39 | 25.07671 | 121.23568 | 107 ft | 0 kts | 319° |
| 2026-04-24 14:39 | 25.07661 | 121.23578 | 105 ft | 2 kts | 316° |
| 2026-04-24 14:39 | 25.07649 | 121.23590 | 104 ft | 2 kts | 315° |
| 2026-04-24 14:40 | 25.07637 | 121.23603 | 106 ft | 2 kts | 315° |
| 2026-04-24 14:40 | 25.07626 | 121.23615 | 105 ft | 2 kts | 307° |
| 2026-04-24 14:40 | 25.07617 | 121.23631 | 103 ft | 2 kts | 290° |
| 2026-04-24 14:40 | 25.07614 | 121.23648 | 107 ft | 2 kts | 257° |
| 2026-04-24 14:41 | 25.07619 | 121.23663 | 103 ft | 0 kts | 228° |
| 2026-04-24 14:43 | 25.07618 | 121.23662 | 103 ft | 1 kts | 228° |
| 2026-04-24 14:43 | 25.07601 | 121.23640 | 105 ft | 7 kts | 228° |
| 2026-04-24 14:43 | 25.07554 | 121.23582 | 108 ft | 13 kts | 229° |
| 2026-04-24 14:43 | 25.07488 | 121.23492 | 108 ft | 17 kts | 230° |
| 2026-04-24 14:44 | 25.07405 | 121.23385 | 108 ft | 19 kts | 229° |
| 2026-04-24 14:44 | 25.07314 | 121.23267 | 108 ft | 17 kts | 229° |
| 2026-04-24 14:44 | 25.07249 | 121.23191 | 108 ft | 13 kts | 214° |
| 2026-04-24 14:44 | 25.07169 | 121.23216 | 107 ft | 13 kts | 139° |
| 2026-04-24 14:45 | 25.07086 | 121.23272 | 106 ft | 15 kts | 176° |
| 2026-04-24 14:45 | 25.07005 | 121.23200 | 106 ft | 17 kts | 228° |
| 2026-04-24 14:45 | 25.06922 | 121.23097 | 107 ft | 19 kts | 229° |
| 2026-04-24 14:45 | 25.06832 | 121.22982 | 106 ft | 21 kts | 229° |
| 2026-04-24 14:46 | 25.06730 | 121.22854 | 106 ft | 23 kts | 229° |
| 2026-04-24 14:46 | 25.06621 | 121.22715 | 106 ft | 24 kts | 229° |
| 2026-04-24 14:46 | 25.06510 | 121.22574 | 107 ft | 24 kts | 229° |
| 2026-04-24 14:46 | 25.06400 | 121.22436 | 107 ft | 24 kts | 229° |
| 2026-04-24 14:47 | 25.06290 | 121.22297 | 108 ft | 20 kts | 229° |
| 2026-04-24 14:47 | 25.06219 | 121.22259 | 108 ft | 8 kts | 172° |
| 2026-04-24 14:47 | 25.06160 | 121.22297 | 104 ft | 12 kts | 143° |
| 2026-04-24 14:47 | 25.06117 | 121.22374 | 102 ft | 12 kts | 89° |
| 2026-04-24 14:48 | 25.06165 | 121.22455 | 102 ft | 15 kts | 50° |
| 2026-04-24 14:48 | 25.06376 | 121.22724 | 101 ft | 90 kts | 49° |
| 2026-04-24 14:48 | 25.06976 | 121.23478 | 102 ft | 167 kts | 47° |
| 2026-04-24 14:48 | 25.07808 | 121.24500 | 662 ft | 173 kts | 48° |
| 2026-04-24 14:49 | 25.08611 | 121.25539 | 1416 ft | 183 kts | 49° |
| 2026-04-24 14:49 | 25.09452 | 121.26644 | 2042 ft | 196 kts | 49° |
| 2026-04-24 14:49 | 25.10393 | 121.27872 | 2379 ft | 225 kts | 49° |
| 2026-04-24 14:49 | 25.11466 | 121.29269 | 2734 ft | 255 kts | 48° |
| 2026-04-24 14:50 | 25.12882 | 121.30478 | 3402 ft | 263 kts | 19° |
| 2026-04-24 14:50 | 25.14681 | 121.30677 | 4363 ft | 262 kts | 347° |
| 2026-04-24 14:50 | 25.16290 | 121.29831 | 5354 ft | 259 kts | 317° |
| 2026-04-24 14:50 | 25.17534 | 121.28388 | 6296 ft | 261 kts | 308° |
| 2026-04-24 14:51 | 25.18711 | 121.26827 | 7230 ft | 265 kts | 307° |
| 2026-04-24 14:51 | 25.19886 | 121.25236 | 8167 ft | 268 kts | 307° |
| 2026-04-24 14:51 | 25.21077 | 121.23623 | 9087 ft | 272 kts | 307° |
| 2026-04-24 14:51 | 25.22283 | 121.21998 | 9982 ft | 275 kts | 307° |
| 2026-04-24 14:52 | 25.23507 | 121.20361 | 10700 ft | 288 kts | 307° |
| 2026-04-24 14:52 | 25.24776 | 121.18514 | 10916 ft | 312 kts | 296° |
| 2026-04-24 14:52 | 25.25296 | 121.16123 | 11157 ft | 338 kts | 268° |
| 2026-04-24 14:52 | 25.24658 | 121.13560 | 11789 ft | 354 kts | 242° |
| 2026-04-24 14:53 | 25.23259 | 121.11286 | 12727 ft | 362 kts | 232° |
| 2026-04-24 14:53 | 25.21601 | 121.09155 | 13768 ft | 368 kts | 229° |
| 2026-04-24 14:53 | 25.19870 | 121.07099 | 14846 ft | 372 kts | 227° |
| 2026-04-24 14:53 | 25.18079 | 121.05012 | 15885 ft | 376 kts | 227° |
| 2026-04-24 14:54 | 25.16260 | 121.02885 | 16885 ft | 382 kts | 228° |
| 2026-04-24 14:54 | 25.14425 | 121.00716 | 17823 ft | 387 kts | 228° |
| 2026-04-24 14:54 | 25.12581 | 120.98515 | 18751 ft | 392 kts | 229° |
| 2026-04-24 14:54 | 25.10742 | 120.96306 | 19637 ft | 397 kts | 229° |
| 2026-04-24 14:55 | 25.09500 | 120.94808 | 20210 ft | 400 kts | 229° |
| 2026-04-24 14:55 | 25.06968 | 120.91748 | 21323 ft | 407 kts | 229° |
| 2026-04-24 14:55 | 25.05043 | 120.89418 | 22115 ft | 411 kts | 229° |
| 2026-04-24 14:55 | 25.03102 | 120.87070 | 22884 ft | 416 kts | 229° |
| 2026-04-24 14:56 | 25.01156 | 120.84715 | 23593 ft | 420 kts | 229° |
| 2026-04-24 14:56 | 24.99178 | 120.82325 | 23835 ft | 422 kts | 229° |
| 2026-04-24 14:56 | 24.97208 | 120.79946 | 23828 ft | 423 kts | 229° |
| 2026-04-24 14:56 | 24.95210 | 120.77534 | 23835 ft | 423 kts | 229° |
| 2026-04-24 14:57 | 24.93219 | 120.75132 | 23836 ft | 423 kts | 229° |
| 2026-04-24 14:57 | 24.91259 | 120.72769 | 23830 ft | 423 kts | 229° |
| 2026-04-24 14:57 | 24.89268 | 120.70369 | 23832 ft | 423 kts | 229° |
| 2026-04-24 14:57 | 24.87277 | 120.67970 | 23830 ft | 423 kts | 229° |
| 2026-04-24 14:58 | 24.85286 | 120.65572 | 23828 ft | 423 kts | 229° |
| 2026-04-24 14:58 | 24.83320 | 120.63206 | 23831 ft | 423 kts | 229° |
| 2026-04-24 14:58 | 24.81329 | 120.60809 | 23829 ft | 423 kts | 229° |
| 2026-04-24 14:58 | 24.79335 | 120.58411 | 23831 ft | 423 kts | 229° |
| 2026-04-24 14:59 | 24.77345 | 120.56020 | 23829 ft | 423 kts | 229° |
| 2026-04-24 14:59 | 24.75352 | 120.53626 | 23828 ft | 423 kts | 229° |
| 2026-04-24 14:59 | 24.73308 | 120.51349 | 23827 ft | 424 kts | 224° |
| 2026-04-24 14:59 | 24.71034 | 120.49261 | 23824 ft | 425 kts | 218° |
| 2026-04-24 15:00 | 24.68596 | 120.47405 | 23833 ft | 426 kts | 216° |
| 2026-04-24 15:00 | 24.66134 | 120.45563 | 23831 ft | 426 kts | 216° |
| 2026-04-24 15:00 | 24.63711 | 120.43748 | 23827 ft | 426 kts | 216° |
| 2026-04-24 15:00 | 24.61257 | 120.41904 | 23828 ft | 426 kts | 216° |
| 2026-04-24 15:01 | 24.58809 | 120.40058 | 23831 ft | 426 kts | 216° |
| 2026-04-24 15:01 | 24.56364 | 120.38210 | 23830 ft | 426 kts | 216° |
| 2026-04-24 15:01 | 24.53944 | 120.36380 | 23829 ft | 426 kts | 216° |
| 2026-04-24 15:01 | 24.51496 | 120.34529 | 23830 ft | 426 kts | 216° |
| 2026-04-24 15:02 | 24.49050 | 120.32681 | 23830 ft | 426 kts | 216° |
| 2026-04-24 15:02 | 24.46603 | 120.30834 | 23829 ft | 426 kts | 216° |
| 2026-04-24 15:02 | 24.44196 | 120.29010 | 23832 ft | 426 kts | 217° |
| 2026-04-24 15:02 | 24.41766 | 120.27137 | 23830 ft | 426 kts | 217° |
| 2026-04-24 15:03 | 24.39347 | 120.25256 | 23830 ft | 426 kts | 217° |
| 2026-04-24 15:03 | 24.36930 | 120.23376 | 23829 ft | 426 kts | 217° |
| 2026-04-24 15:03 | 24.34514 | 120.21498 | 23830 ft | 426 kts | 217° |
| 2026-04-24 15:03 | 24.32092 | 120.19621 | 23830 ft | 426 kts | 217° |
| 2026-04-24 15:04 | 24.29671 | 120.17746 | 23828 ft | 426 kts | 217° |
| 2026-04-24 15:04 | 24.27246 | 120.15871 | 23830 ft | 426 kts | 217° |
| 2026-04-24 15:04 | 24.24852 | 120.14021 | 23832 ft | 426 kts | 217° |
| 2026-04-24 15:04 | 24.22426 | 120.12147 | 23831 ft | 426 kts | 217° |
| 2026-04-24 15:05 | 24.19992 | 120.10268 | 23830 ft | 426 kts | 217° |
| 2026-04-24 15:05 | 24.17571 | 120.08399 | 23830 ft | 426 kts | 217° |
| 2026-04-24 15:05 | 24.15175 | 120.06551 | 23830 ft | 426 kts | 217° |
| 2026-04-24 15:05 | 24.12751 | 120.04678 | 23832 ft | 426 kts | 217° |
| 2026-04-24 15:06 | 24.10333 | 120.02807 | 23831 ft | 426 kts | 217° |
| 2026-04-24 15:06 | 24.07908 | 120.00929 | 23831 ft | 426 kts | 217° |
| 2026-04-24 15:06 | 24.05492 | 119.99060 | 23832 ft | 426 kts | 217° |
| 2026-04-24 15:06 | 24.03065 | 119.97183 | 23832 ft | 426 kts | 217° |
| 2026-04-24 15:07 | 24.00641 | 119.95311 | 23830 ft | 426 kts | 217° |
| 2026-04-24 15:07 | 23.98248 | 119.93465 | 23830 ft | 426 kts | 217° |
| 2026-04-24 15:07 | 23.95823 | 119.91597 | 23830 ft | 426 kts | 217° |
| 2026-04-24 15:07 | 23.93393 | 119.89727 | 23831 ft | 426 kts | 217° |
| 2026-04-24 15:08 | 23.90998 | 119.87882 | 23830 ft | 426 kts | 217° |
| 2026-04-24 15:08 | 23.88565 | 119.86010 | 23829 ft | 426 kts | 217° |
| 2026-04-24 15:08 | 23.86146 | 119.84149 | 23829 ft | 426 kts | 217° |
| 2026-04-24 15:08 | 23.83709 | 119.82275 | 23832 ft | 426 kts | 217° |
| 2026-04-24 15:09 | 23.81320 | 119.80438 | 23830 ft | 426 kts | 217° |
| 2026-04-24 15:09 | 23.78889 | 119.78571 | 23828 ft | 426 kts | 217° |
| 2026-04-24 15:09 | 23.76459 | 119.76704 | 23829 ft | 426 kts | 217° |
| 2026-04-24 15:09 | 23.74033 | 119.74841 | 23830 ft | 426 kts | 217° |
| 2026-04-24 15:10 | 23.71639 | 119.73003 | 23830 ft | 426 kts | 217° |
| 2026-04-24 15:10 | 23.69213 | 119.71142 | 23830 ft | 426 kts | 217° |
| 2026-04-24 15:10 | 23.66783 | 119.69288 | 23828 ft | 423 kts | 215° |
| 2026-04-24 15:10 | 23.64106 | 119.67903 | 23829 ft | 430 kts | 198° |
| 2026-04-24 15:11 | 23.61149 | 119.67485 | 23838 ft | 436 kts | 181° |
| 2026-04-24 15:11 | 23.58134 | 119.68014 | 23834 ft | 442 kts | 165° |
| 2026-04-24 15:11 | 23.55317 | 119.69384 | 23565 ft | 447 kts | 151° |
| 2026-04-24 15:11 | 23.52941 | 119.71617 | 22886 ft | 448 kts | 134° |
| 2026-04-24 15:12 | 23.50952 | 119.74168 | 22292 ft | 444 kts | 132° |
| 2026-04-24 15:12 | 23.46999 | 119.79261 | 21040 ft | 435 kts | 133° |
| 2026-04-24 15:12 | 23.45035 | 119.81744 | 20422 ft | 430 kts | 133° |
| 2026-04-24 15:13 | 23.43076 | 119.84197 | 19822 ft | 426 kts | 133° |
| 2026-04-24 15:13 | 23.41145 | 119.86601 | 19221 ft | 422 kts | 133° |
| 2026-04-24 15:13 | 23.39214 | 119.89002 | 18625 ft | 418 kts | 133° |
| 2026-04-24 15:13 | 23.37297 | 119.91384 | 18010 ft | 415 kts | 133° |
| 2026-04-24 15:14 | 23.35425 | 119.93705 | 17451 ft | 411 kts | 133° |
| 2026-04-24 15:14 | 23.33535 | 119.96033 | 16849 ft | 407 kts | 134° |
| 2026-04-24 15:14 | 23.31659 | 119.98335 | 16265 ft | 404 kts | 134° |
| 2026-04-24 15:14 | 23.29816 | 120.00595 | 15695 ft | 401 kts | 134° |
| 2026-04-24 15:15 | 23.27966 | 120.02864 | 15102 ft | 397 kts | 134° |
| 2026-04-24 15:15 | 23.26135 | 120.05112 | 14518 ft | 394 kts | 133° |
| 2026-04-24 15:15 | 23.24319 | 120.07340 | 13931 ft | 391 kts | 133° |
| 2026-04-24 15:15 | 23.22543 | 120.09518 | 13357 ft | 388 kts | 133° |
| 2026-04-24 15:16 | 23.20757 | 120.11710 | 12788 ft | 385 kts | 133° |
| 2026-04-24 15:16 | 23.18988 | 120.13878 | 12226 ft | 382 kts | 133° |
| 2026-04-24 15:16 | 23.17223 | 120.16040 | 11663 ft | 379 kts | 133° |
| 2026-04-24 15:16 | 23.15437 | 120.18101 | 11091 ft | 367 kts | 142° |
| 2026-04-24 15:17 | 23.13280 | 120.19401 | 10718 ft | 353 kts | 165° |
| 2026-04-24 15:17 | 23.10919 | 120.19872 | 10584 ft | 336 kts | 179° |
| 2026-04-24 15:17 | 23.08655 | 120.19681 | 10434 ft | 318 kts | 192° |
| 2026-04-24 15:17 | 23.06524 | 120.19250 | 10322 ft | 306 kts | 193° |
| 2026-04-24 15:18 | 23.04496 | 120.18813 | 10278 ft | 284 kts | 193° |
| 2026-04-24 15:18 | 23.02631 | 120.18410 | 10198 ft | 261 kts | 193° |
| 2026-04-24 15:18 | 23.00924 | 120.18043 | 10099 ft | 244 kts | 194° |
| 2026-04-24 15:18 | 22.99200 | 120.17672 | 10070 ft | 268 kts | 193° |
| 2026-04-24 15:19 | 22.97291 | 120.17263 | 9777 ft | 288 kts | 193° |
| 2026-04-24 15:19 | 22.95323 | 120.16849 | 9595 ft | 286 kts | 193° |
| 2026-04-24 15:19 | 22.93407 | 120.16451 | 9445 ft | 279 kts | 193° |
| 2026-04-24 15:19 | 22.91528 | 120.16063 | 8922 ft | 273 kts | 193° |
| 2026-04-24 15:20 | 22.89671 | 120.15679 | 8467 ft | 266 kts | 193° |
| 2026-04-24 15:20 | 22.87880 | 120.15310 | 8143 ft | 259 kts | 193° |
| 2026-04-24 15:20 | 22.86134 | 120.14949 | 7835 ft | 258 kts | 193° |
| 2026-04-24 15:20 | 22.84377 | 120.14586 | 7534 ft | 257 kts | 193° |
| 2026-04-24 15:21 | 22.82618 | 120.14223 | 7232 ft | 256 kts | 193° |
| 2026-04-24 15:21 | 22.80871 | 120.13862 | 6937 ft | 255 kts | 193° |
| 2026-04-24 15:21 | 22.79131 | 120.13504 | 6624 ft | 254 kts | 193° |
| 2026-04-24 15:21 | 22.77388 | 120.13145 | 6328 ft | 254 kts | 193° |
| 2026-04-24 15:22 | 22.75677 | 120.12793 | 6029 ft | 253 kts | 193° |
| 2026-04-24 15:22 | 22.73944 | 120.12436 | 5724 ft | 253 kts | 192° |
| 2026-04-24 15:22 | 22.72203 | 120.12078 | 5412 ft | 253 kts | 192° |
| 2026-04-24 15:23 | 22.68772 | 120.11371 | 4840 ft | 251 kts | 192° |
| 2026-04-24 15:23 | 22.65339 | 120.10664 | 4243 ft | 250 kts | 192° |
| 2026-04-24 15:23 | 22.63634 | 120.10313 | 3954 ft | 249 kts | 192° |
| 2026-04-24 15:24 | 22.59361 | 120.10930 | 3354 ft | 243 kts | 134° |
| 2026-04-24 15:25 | 22.58394 | 120.14050 | 3138 ft | 202 kts | 96° |
| 2026-04-24 15:25 | 22.58265 | 120.16779 | 2862 ft | 160 kts | 93° |
| 2026-04-24 15:26 | 22.58163 | 120.20151 | 2372 ft | 148 kts | 93° |
| 2026-04-24 15:27 | 22.58061 | 120.23486 | 1784 ft | 147 kts | 93° |
| 2026-04-24 15:27 | 22.57960 | 120.26751 | 1309 ft | 146 kts | 93° |
| 2026-04-24 15:28 | 22.57819 | 120.31100 | 589 ft | 144 kts | 92° |
| 2026-04-24 15:29 | 22.57770 | 120.33278 | 197 ft | 145 kts | 93° |
| 2026-04-24 15:30 | 22.57641 | 120.36568 | 1098 ft | 156 kts | 93° |
| 2026-04-24 15:31 | 22.53624 | 120.38505 | 1611 ft | 203 kts | 225° |
| 2026-04-24 15:32 | 22.50664 | 120.33238 | 1587 ft | 206 kts | 241° |
| 2026-04-24 15:33 | 22.46779 | 120.29149 | 1608 ft | 218 kts | 207° |
| 2026-04-24 15:33 | 22.46263 | 120.24590 | 1618 ft | 246 kts | 310° |
| 2026-04-24 15:34 | 22.48575 | 120.21778 | 1859 ft | 252 kts | 309° |
| 2026-04-24 15:35 | 22.51729 | 120.17298 | 1999 ft | 248 kts | 301° |
| 2026-04-24 15:35 | 22.54100 | 120.14614 | 1994 ft | 251 kts | 329° |
| 2026-04-24 15:35 | 22.55791 | 120.14195 | 1997 ft | 252 kts | 5° |
| 2026-04-24 15:36 | 22.57332 | 120.14940 | 1987 ft | 240 kts | 45° |
| 2026-04-24 15:36 | 22.58189 | 120.18041 | 1998 ft | 202 kts | 89° |
| 2026-04-24 15:36 | 22.58187 | 120.19502 | 1974 ft | 186 kts | 92° |
| 2026-04-24 15:37 | 22.58146 | 120.20833 | 1951 ft | 168 kts | 93° |
| 2026-04-24 15:37 | 22.58107 | 120.22062 | 1998 ft | 163 kts | 93° |
| 2026-04-24 15:37 | 22.58068 | 120.23268 | 1889 ft | 157 kts | 93° |
| 2026-04-24 15:37 | 22.58033 | 120.24413 | 1727 ft | 150 kts | 93° |
| 2026-04-24 15:38 | 22.57998 | 120.25533 | 1508 ft | 148 kts | 93° |
| 2026-04-24 15:38 | 22.57964 | 120.26641 | 1311 ft | 146 kts | 93° |
| 2026-04-24 15:38 | 22.57929 | 120.27723 | 1113 ft | 145 kts | 93° |
| 2026-04-24 15:38 | 22.57902 | 120.28810 | 992 ft | 144 kts | 91° |
| 2026-04-24 15:39 | 22.57889 | 120.29902 | 904 ft | 148 kts | 93° |
| 2026-04-24 15:39 | 22.57822 | 120.31025 | 731 ft | 149 kts | 95° |
| 2026-04-24 15:39 | 22.57780 | 120.32124 | 410 ft | 146 kts | 92° |
| 2026-04-24 15:39 | 22.57760 | 120.33211 | 197 ft | 143 kts | 92° |
| 2026-04-24 15:40 | 22.57729 | 120.34282 | 56 ft | 138 kts | 92° |
| 2026-04-24 15:40 | 22.57703 | 120.35062 | 42 ft | 62 kts | 91° |
| 2026-04-24 15:40 | 22.57698 | 120.35499 | 42 ft | 56 kts | 91° |
| 2026-04-24 15:40 | 22.57679 | 120.35901 | 44 ft | 51 kts | 92° |
| 2026-04-24 15:41 | 22.57671 | 120.36220 | 44 ft | 41 kts | 93° |
| 2026-04-24 15:41 | 22.57653 | 120.36395 | 44 ft | 5 kts | 128° |
| 2026-04-24 15:41 | 22.57618 | 120.36410 | 44 ft | 6 kts | 173° |
| 2026-04-24 15:41 | 22.57567 | 120.36416 | 44 ft | 9 kts | 180° |
| 2026-04-24 15:42 | 22.57501 | 120.36374 | 43 ft | 14 kts | 242° |
| 2026-04-24 15:42 | 22.57501 | 120.36254 | 43 ft | 19 kts | 273° |
| 2026-04-24 15:42 | 22.57507 | 120.36078 | 43 ft | 27 kts | 272° |
| 2026-04-24 15:42 | 22.57514 | 120.35847 | 43 ft | 34 kts | 272° |
| 2026-04-24 15:43 | 22.57523 | 120.35566 | 43 ft | 40 kts | 272° |
| 2026-04-24 15:43 | 22.57532 | 120.35242 | 41 ft | 46 kts | 272° |
| 2026-04-24 15:43 | 22.57542 | 120.34887 | 43 ft | 50 kts | 271° |
| 2026-04-24 15:43 | 22.57553 | 120.34508 | 43 ft | 49 kts | 273° |
| 2026-04-24 15:44 | 22.57563 | 120.34159 | 43 ft | 29 kts | 259° |
| 2026-04-24 15:44 | 22.57547 | 120.34130 | 43 ft | 2 kts | 212° |
| 2026-04-24 15:44 | 22.57526 | 120.34122 | 43 ft | 5 kts | 193° |
| 2026-04-24 15:44 | 22.57472 | 120.34120 | 43 ft | 10 kts | 181° |
| 2026-04-24 15:45 | 22.57415 | 120.34135 | 43 ft | 4 kts | 128° |
| 2026-04-24 15:45 | 22.57405 | 120.34182 | 43 ft | 9 kts | 92° |
| 2026-04-24 15:45 | 22.57403 | 120.34268 | 43 ft | 14 kts | 90° |
| 2026-04-24 15:45 | 22.57382 | 120.34329 | 43 ft | 7 kts | 160° |
| 2026-04-24 15:46 | 22.57323 | 120.34326 | 43 ft | 11 kts | 182° |
| 2026-04-24 15:46 | 22.57265 | 120.34312 | 43 ft | 5 kts | 227° |
| 2026-04-24 15:46 | 22.57265 | 120.34277 | 43 ft | 2 kts | 288° |
| 2026-04-24 15:46 | 22.57266 | 120.34252 | 43 ft | 0 kts | 271° |
| 2026-04-24 15:47 | 22.57266 | 120.34242 | 43 ft | 2 kts | 271° |